Time;durP1;ratioP1;P1;durP2;ratioP2;P2;SDS_P1;SDS_P2;PMS_P1;PMS_P2;Temp;Humidity;BMP_temperature;BMP_pressure;BME280_temperature;BME280_humidity;BME280_pressure;Samples;Min_cycle;Max_cycle;Signal;HPM_P1;HPM_P2
2023/06/22 00:01:49;;;;;;;13.63;6.20;;;;;;;;;;4992658;28;20500;-84
2023/06/22 00:04:15;;;;;;;14.90;6.45;;;;;;;;;;4996644;28;20432;-84
2023/06/22 00:06:41;;;;;;;14.50;6.18;;;;;;;;;;5011304;28;20478;-84
2023/06/22 00:09:06;;;;;;;13.18;5.35;;;;;;;;;;4998027;28;20080;-84
2023/06/22 00:11:33;;;;;;;15.48;5.30;;;;;;;;;;4997933;28;20038;-84
2023/06/22 00:13:59;;;;;;;10.93;5.25;;;;;;;;;;4996465;28;20037;-84
2023/06/22 00:16:25;;;;;;;12.02;5.05;;;;;;;;;;4997478;28;20034;-85
2023/06/22 00:18:50;;;;;;;10.07;4.85;;;;;;;;;;4996125;28;20030;-84
2023/06/22 00:21:16;;;;;;;10.30;4.90;;;;;;;;;;4990804;28;20043;-84
2023/06/22 00:23:41;;;;;;;14.88;5.22;;;;;;;;;;4997139;28;20034;-84
2023/06/22 00:26:07;;;;;;;12.43;5.30;;;;;;;;;;4997702;28;20042;-84
2023/06/22 00:28:34;;;;;;;10.98;5.50;;;;;;;;;;4997002;28;20043;-84
2023/06/22 00:31:00;;;;;;;10.18;5.05;;;;;;;;;;4994465;28;20136;-84
2023/06/22 00:33:28;;;;;;;13.13;5.07;;;;;;;;;;4995955;28;20503;-85
2023/06/22 00:35:53;;;;;;;12.63;4.97;;;;;;;;;;4995924;28;20035;-84
2023/06/22 00:38:19;;;;;;;9.30;5.10;;;;;;;;;;4993892;28;20038;-84
2023/06/22 00:40:45;;;;;;;10.60;5.10;;;;;;;;;;5009952;28;20035;-85
2023/06/22 00:43:10;;;;;;;12.73;6.10;;;;;;;;;;4998665;28;20050;-84
2023/06/22 00:45:36;;;;;;;13.75;6.80;;;;;;;;;;4996380;28;20134;-85
2023/06/22 00:48:02;;;;;;;14.15;6.60;;;;;;;;;;4996504;28;20070;-85
2023/06/22 00:50:33;;;;;;;18.85;7.22;;;;;;;;;;5007295;28;20037;-84
2023/06/22 00:53:00;;;;;;;15.32;7.00;;;;;;;;;;5011753;28;20038;-85
2023/06/22 00:55:25;;;;;;;15.45;6.65;;;;;;;;;;4997812;28;20081;-84
2023/06/22 00:57:55;;;;;;;17.40;7.45;;;;;;;;;;5008563;28;20042;-84
2023/06/22 01:00:24;;;;;;;13.07;6.78;;;;;;;;;;4994654;28;20030;-85
2023/06/22 01:02:51;;;;;;;13.27;6.50;;;;;;;;;;4997628;28;20081;-84
2023/06/22 01:05:18;;;;;;;11.98;6.60;;;;;;;;;;4997699;28;20037;-84
2023/06/22 01:08:43;;;;;;;13.00;6.43;;;;;;;;;;4995988;28;20042;-85
2023/06/22 01:11:20;;;;;;;18.88;7.10;;;;;;;;;;4955718;28;20078;-84
2023/06/22 01:14:31;;;;;;;13.48;6.65;;;;;;;;;;4996881;28;20041;-84
2023/06/22 01:16:57;;;;;;;16.00;6.93;;;;;;;;;;5001074;28;20493;-84
2023/06/22 01:19:54;;;;;;;11.95;6.80;;;;;;;;;;4979680;28;20121;-84
2023/06/22 01:22:25;;;;;;;15.60;7.03;;;;;;;;;;4994877;28;20511;-84
2023/06/22 01:25:26;;;;;;;12.00;5.82;;;;;;;;;;5009977;28;20040;-84
2023/06/22 01:28:14;;;;;;;15.60;6.00;;;;;;;;;;4989152;28;20093;-84
2023/06/22 01:30:42;;;;;;;10.90;5.53;;;;;;;;;;4996969;28;20038;-85
2023/06/22 01:33:12;;;;;;;12.20;5.70;;;;;;;;;;4994309;28;20107;-85
2023/06/22 01:35:38;;;;;;;12.77;5.70;;;;;;;;;;4997592;28;20121;-84
2023/06/22 01:38:05;;;;;;;13.80;5.68;;;;;;;;;;4995839;28;20117;-84
2023/06/22 01:40:32;;;;;;;11.85;5.82;;;;;;;;;;4979007;28;20108;-85
2023/06/22 01:43:00;;;;;;;11.50;5.82;;;;;;;;;;4992024;28;20166;-85
2023/06/22 01:45:27;;;;;;;12.07;6.07;;;;;;;;;;4978990;28;20039;-85
2023/06/22 01:47:54;;;;;;;14.50;5.78;;;;;;;;;;4982760;28;20065;-85
2023/06/22 01:50:20;;;;;;;11.43;6.28;;;;;;;;;;4986691;28;20062;-85
2023/06/22 01:52:45;;;;;;;16.45;6.05;;;;;;;;;;4989533;28;20038;-85
2023/06/22 01:55:11;;;;;;;13.57;5.78;;;;;;;;;;4991309;28;20038;-84
2023/06/22 01:57:38;;;;;;;11.52;6.03;;;;;;;;;;4996526;28;20038;-84
2023/06/22 02:00:13;;;;;;;15.63;6.50;;;;;;;;;;4998811;28;20039;-84
2023/06/22 02:02:54;;;;;;;18.33;6.15;;;;;;;;;;4997474;28;20045;-84
2023/06/22 02:05:22;;;;;;;12.52;6.60;;;;;;;;;;5000427;28;20034;-85
2023/06/22 02:08:07;;;;;;;13.73;5.95;;;;;;;;;;4999173;28;20185;-85
2023/06/22 02:10:35;;;;;;;10.90;5.97;;;;;;;;;;4997003;28;20042;-85
2023/06/22 02:13:02;;;;;;;11.02;5.82;;;;;;;;;;4982111;28;20030;-85
2023/06/22 02:15:28;;;;;;;11.27;5.85;;;;;;;;;;4997543;28;20035;-85
2023/06/22 02:17:54;;;;;;;14.57;6.05;;;;;;;;;;4985535;28;20026;-85
2023/06/22 02:20:21;;;;;;;11.52;5.97;;;;;;;;;;4984584;28;20086;-85
2023/06/22 02:22:46;;;;;;;10.13;5.32;;;;;;;;;;4988989;28;20066;-84
2023/06/22 02:25:12;;;;;;;16.38;6.20;;;;;;;;;;4990239;28;20048;-85
2023/06/22 02:27:40;;;;;;;13.75;6.22;;;;;;;;;;4992332;28;20034;-85
2023/06/22 02:30:09;;;;;;;14.68;6.30;;;;;;;;;;5012909;28;20027;-85
2023/06/22 02:32:36;;;;;;;11.57;6.10;;;;;;;;;;5004174;28;20026;-85
2023/06/22 02:35:06;;;;;;;13.40;6.22;;;;;;;;;;4996383;28;20045;-85
2023/06/22 02:37:32;;;;;;;15.27;6.50;;;;;;;;;;5010791;28;20089;-85
2023/06/22 02:39:57;;;;;;;11.88;6.20;;;;;;;;;;5015395;28;20037;-85
2023/06/22 02:42:23;;;;;;;12.45;6.38;;;;;;;;;;5007779;28;20124;-86
2023/06/22 02:44:48;;;;;;;15.80;6.30;;;;;;;;;;4990121;28;20034;-85
2023/06/22 02:47:15;;;;;;;13.02;6.57;;;;;;;;;;5004808;28;20030;-84
2023/06/22 02:49:41;;;;;;;11.65;6.30;;;;;;;;;;4986682;28;20060;-85
2023/06/22 02:52:07;;;;;;;15.82;6.30;;;;;;;;;;5003341;28;20042;-84
2023/06/22 02:54:33;;;;;;;12.75;5.93;;;;;;;;;;5003361;28;20182;-85
2023/06/22 02:57:02;;;;;;;12.73;6.10;;;;;;;;;;5001549;28;20030;-85
2023/06/22 02:59:28;;;;;;;10.55;6.28;;;;;;;;;;5009299;28;20038;-85
2023/06/22 03:02:00;;;;;;;10.35;5.85;;;;;;;;;;5002112;28;20439;-85
2023/06/22 03:04:31;;;;;;;15.23;6.32;;;;;;;;;;4993349;28;20085;-84
2023/06/22 03:06:56;;;;;;;17.80;5.95;;;;;;;;;;4995170;28;20192;-84
2023/06/22 03:09:22;;;;;;;12.70;5.65;;;;;;;;;;5008585;28;20500;-84
2023/06/22 03:11:47;;;;;;;10.65;5.72;;;;;;;;;;5007257;28;20070;-85
2023/06/22 03:14:13;;;;;;;15.20;6.38;;;;;;;;;;5003754;28;20069;-85
2023/06/22 03:16:40;;;;;;;14.60;5.80;;;;;;;;;;4980111;28;20488;-84
2023/06/22 03:19:05;;;;;;;14.70;6.30;;;;;;;;;;4980608;28;20037;-85
2023/06/22 03:21:31;;;;;;;12.85;6.07;;;;;;;;;;4998533;28;20029;-85
2023/06/22 03:23:59;;;;;;;11.73;6.05;;;;;;;;;;5011409;28;20031;-85
2023/06/22 03:26:26;;;;;;;13.52;6.25;;;;;;;;;;5008213;28;20038;-85
2023/06/22 03:28:52;;;;;;;16.85;6.40;;;;;;;;;;4996420;28;20506;-85
2023/06/22 03:31:21;;;;;;;16.08;6.43;;;;;;;;;;4998303;28;20050;-84
2023/06/22 03:33:48;;;;;;;14.70;6.65;;;;;;;;;;4997456;28;20100;-85
2023/06/22 03:36:24;;;;;;;16.85;6.30;;;;;;;;;;4995267;28;20044;-85
2023/06/22 03:38:50;;;;;;;11.88;5.93;;;;;;;;;;4977911;28;20026;-85
2023/06/22 03:41:16;;;;;;;17.88;6.20;;;;;;;;;;5010298;28;20045;-85
2023/06/22 03:43:42;;;;;;;13.77;5.68;;;;;;;;;;5006909;28;20037;-87
2023/06/22 03:46:08;;;;;;;12.20;5.75;;;;;;;;;;5003322;28;20034;-85
2023/06/22 03:48:33;;;;;;;12.10;6.13;;;;;;;;;;4997262;28;20041;-84
2023/06/22 03:51:00;;;;;;;10.32;6.55;;;;;;;;;;4995535;28;20041;-85
2023/06/22 03:53:25;;;;;;;10.07;6.20;;;;;;;;;;4997010;28;20045;-85
2023/06/22 03:55:52;;;;;;;14.00;6.53;;;;;;;;;;4964826;28;20030;-85
2023/06/22 03:58:19;;;;;;;14.27;6.25;;;;;;;;;;4982381;28;20038;-85
2023/06/22 04:00:46;;;;;;;11.85;5.95;;;;;;;;;;4984004;28;20030;-84
2023/06/22 04:03:12;;;;;;;16.63;6.95;;;;;;;;;;4987464;28;20034;-85
2023/06/22 04:05:39;;;;;;;11.40;6.30;;;;;;;;;;4988990;28;20117;-85
2023/06/22 04:08:07;;;;;;;11.60;6.65;;;;;;;;;;5008518;28;20117;-84
2023/06/22 04:10:33;;;;;;;14.90;6.65;;;;;;;;;;4995756;28;20104;-84
2023/06/22 04:12:59;;;;;;;21.50;7.25;;;;;;;;;;5007377;28;20126;-84
2023/06/22 04:15:24;;;;;;;11.85;5.90;;;;;;;;;;4995954;28;20073;-85
2023/06/22 04:17:49;;;;;;;16.77;6.88;;;;;;;;;;4996188;28;20041;-85
2023/06/22 04:20:15;;;;;;;18.98;6.65;;;;;;;;;;4995400;28;20033;-85
2023/06/22 04:22:40;;;;;;;13.90;6.90;;;;;;;;;;4987738;28;20122;-84
2023/06/22 04:25:09;;;;;;;16.83;7.18;;;;;;;;;;4979224;28;20049;-84
2023/06/22 04:27:39;;;;;;;17.30;6.72;;;;;;;;;;4984783;28;20042;-85
2023/06/22 04:30:06;;;;;;;14.05;6.90;;;;;;;;;;4989314;28;20396;-86
2023/06/22 04:32:33;;;;;;;17.05;7.07;;;;;;;;;;4995732;28;20031;-85
2023/06/22 04:35:00;;;;;;;15.63;7.05;;;;;;;;;;4992297;28;20035;-85
2023/06/22 04:37:26;;;;;;;13.10;6.97;;;;;;;;;;4980003;28;20050;-85
2023/06/22 04:39:52;;;;;;;19.98;7.10;;;;;;;;;;4983621;28;20054;-85
2023/06/22 04:42:17;;;;;;;11.68;6.50;;;;;;;;;;5001097;28;20042;-85
2023/06/22 04:44:43;;;;;;;18.13;7.25;;;;;;;;;;4996239;28;20126;-85
2023/06/22 04:47:08;;;;;;;13.95;6.50;;;;;;;;;;4996315;28;20042;-84
2023/06/22 04:49:40;;;;;;;16.63;6.55;;;;;;;;;;4996390;28;20045;-85
2023/06/22 04:52:07;;;;;;;14.13;6.43;;;;;;;;;;4982642;28;20537;-83
2023/06/22 04:54:34;;;;;;;13.77;6.30;;;;;;;;;;4980072;28;20030;-85
2023/06/22 04:57:05;;;;;;;12.25;6.05;;;;;;;;;;4981684;28;20031;-85
2023/06/22 04:59:31;;;;;;;14.27;6.03;;;;;;;;;;4985119;28;20038;-85
2023/06/22 05:01:58;;;;;;;18.25;6.00;;;;;;;;;;4989449;28;20046;-84
2023/06/22 05:04:25;;;;;;;20.88;6.32;;;;;;;;;;4991648;28;20061;-84
2023/06/22 05:06:52;;;;;;;16.10;6.40;;;;;;;;;;4995436;28;20026;-84
2023/06/22 05:09:18;;;;;;;12.30;6.35;;;;;;;;;;4996045;28;20066;-85
2023/06/22 05:11:44;;;;;;;15.38;5.80;;;;;;;;;;4994628;28;20023;-86
2023/06/22 05:14:10;;;;;;;14.82;6.10;;;;;;;;;;4994911;28;20088;-85
2023/06/22 05:16:36;;;;;;;15.35;6.40;;;;;;;;;;4995851;28;20030;-85
2023/06/22 05:19:03;;;;;;;15.18;6.00;;;;;;;;;;5000719;28;20034;-84
2023/06/22 05:21:30;;;;;;;15.15;5.95;;;;;;;;;;4994102;28;20046;-85
2023/06/22 05:23:59;;;;;;;18.60;6.18;;;;;;;;;;4993570;28;20096;-84
2023/06/22 05:26:26;;;;;;;14.48;6.05;;;;;;;;;;4978322;28;20046;-84
2023/06/22 05:28:52;;;;;;;16.88;6.40;;;;;;;;;;5006709;28;20054;-84
2023/06/22 05:31:21;;;;;;;18.23;6.80;;;;;;;;;;4997927;28;20041;-84
2023/06/22 05:33:48;;;;;;;13.68;6.20;;;;;;;;;;4997086;28;20065;-85
2023/06/22 05:36:14;;;;;;;16.63;5.72;;;;;;;;;;4999080;28;20043;-85
2023/06/22 05:38:40;;;;;;;20.95;6.68;;;;;;;;;;4999277;28;20041;-86
2023/06/22 05:41:06;;;;;;;14.93;5.97;;;;;;;;;;4991245;28;20125;-85
2023/06/22 05:43:31;;;;;;;16.30;6.28;;;;;;;;;;4981330;28;20069;-84
2023/06/22 05:45:58;;;;;;;15.35;6.10;;;;;;;;;;4985827;28;20452;-84
2023/06/22 05:48:24;;;;;;;16.05;5.65;;;;;;;;;;4989892;28;20027;-85
2023/06/22 05:50:49;;;;;;;15.20;6.05;;;;;;;;;;5006539;28;20039;-84
2023/06/22 05:53:15;;;;;;;15.75;6.13;;;;;;;;;;4998803;28;20090;-84
2023/06/22 05:55:40;;;;;;;14.77;6.10;;;;;;;;;;4999223;28;20038;-85
2023/06/22 05:58:06;;;;;;;18.70;6.38;;;;;;;;;;4986074;28;20066;-85
2023/06/22 06:00:32;;;;;;;18.92;6.38;;;;;;;;;;4996523;28;20097;-84
2023/06/22 06:03:02;;;;;;;17.88;6.00;;;;;;;;;;4985774;28;20074;-84
2023/06/22 06:05:29;;;;;;;14.88;5.85;;;;;;;;;;4993714;28;20108;-84
2023/06/22 06:07:54;;;;;;;14.65;6.05;;;;;;;;;;4998404;28;20022;-85
2023/06/22 06:10:20;;;;;;;18.50;6.57;;;;;;;;;;4999844;28;20038;-83
2023/06/22 06:12:45;;;;;;;15.13;6.05;;;;;;;;;;4999508;28;20030;-84
2023/06/22 06:15:11;;;;;;;12.90;6.10;;;;;;;;;;4979571;28;20592;-85
2023/06/22 06:17:45;;;;;;;14.02;5.97;;;;;;;;;;5000763;28;20043;-85
2023/06/22 06:20:11;;;;;;;21.92;8.05;;;;;;;;;;5005096;28;20492;-85
2023/06/22 06:22:37;;;;;;;17.98;6.18;;;;;;;;;;4994181;28;20046;-84
2023/06/22 06:25:03;;;;;;;20.90;7.13;;;;;;;;;;4991124;28;20026;-86
2023/06/22 06:27:29;;;;;;;13.43;5.45;;;;;;;;;;4996561;28;20546;-85
2023/06/22 06:29:54;;;;;;;19.60;6.40;;;;;;;;;;4991753;28;20039;-85
2023/06/22 06:32:20;;;;;;;18.42;6.20;;;;;;;;;;4980336;28;20084;-86
2023/06/22 06:34:45;;;;;;;14.90;6.47;;;;;;;;;;4984148;28;20118;-86
2023/06/22 06:37:11;;;;;;;18.48;6.53;;;;;;;;;;4986977;28;20043;-85
2023/06/22 06:39:36;;;;;;;15.15;6.15;;;;;;;;;;5002375;28;20053;-86
2023/06/22 06:42:02;;;;;;;16.08;6.65;;;;;;;;;;4996635;28;20117;-85
2023/06/22 06:44:28;;;;;;;14.70;6.30;;;;;;;;;;4992026;28;20125;-85
2023/06/22 06:46:54;;;;;;;17.65;5.97;;;;;;;;;;4974950;28;20500;-85
2023/06/22 06:49:19;;;;;;;16.40;6.03;;;;;;;;;;4994282;28;20399;-86
2023/06/22 06:51:45;;;;;;;14.52;6.05;;;;;;;;;;4993818;28;20471;-85
2023/06/22 06:54:10;;;;;;;19.98;6.47;;;;;;;;;;4996709;28;20064;-85
2023/06/22 06:56:36;;;;;;;15.10;6.05;;;;;;;;;;4996184;28;20418;-85
2023/06/22 06:59:01;;;;;;;12.93;6.07;;;;;;;;;;4998786;28;20041;-85
2023/06/22 07:01:27;;;;;;;15.18;5.80;;;;;;;;;;4996147;28;20124;-84
2023/06/22 07:03:53;;;;;;;16.85;5.88;;;;;;;;;;4983914;28;20042;-86
2023/06/22 07:06:19;;;;;;;18.23;5.95;;;;;;;;;;4981525;28;20459;-86
2023/06/22 07:08:44;;;;;;;15.73;5.90;;;;;;;;;;4993307;28;20086;-86
2023/06/22 07:11:09;;;;;;;17.92;5.82;;;;;;;;;;4998687;28;20041;-87
2023/06/22 07:13:35;;;;;;;19.58;6.10;;;;;;;;;;4996881;28;20570;-87
2023/06/22 07:16:00;;;;;;;14.45;5.75;;;;;;;;;;4996316;28;20562;-85
2023/06/22 07:18:26;;;;;;;18.42;6.10;;;;;;;;;;4993956;28;20570;-83
2023/06/22 07:20:52;;;;;;;14.85;5.88;;;;;;;;;;4978485;28;20488;-85
2023/06/22 07:23:17;;;;;;;13.55;5.82;;;;;;;;;;4980391;28;20039;-84
2023/06/22 07:25:43;;;;;;;14.88;5.60;;;;;;;;;;4982998;28;20045;-85
2023/06/22 07:28:09;;;;;;;18.65;5.97;;;;;;;;;;4984671;28;20038;-83
2023/06/22 07:30:35;;;;;;;17.90;5.85;;;;;;;;;;4988123;28;20687;-85
2023/06/22 07:33:03;;;;;;;11.13;5.60;;;;;;;;;;4991846;28;20049;-85
2023/06/22 07:35:29;;;;;;;14.30;5.53;;;;;;;;;;5005701;28;20041;-85
2023/06/22 07:37:55;;;;;;;14.05;5.80;;;;;;;;;;4995317;28;20078;-84
2023/06/22 07:40:20;;;;;;;19.23;6.32;;;;;;;;;;5005546;28;20038;-84
2023/06/22 07:42:48;;;;;;;20.98;5.75;;;;;;;;;;5003015;28;20045;-84
2023/06/22 07:45:13;;;;;;;15.50;6.00;;;;;;;;;;4994970;28;20034;-85
2023/06/22 07:47:39;;;;;;;17.13;5.57;;;;;;;;;;4993778;28;20080;-84
2023/06/22 07:50:05;;;;;;;19.25;5.80;;;;;;;;;;4992334;28;20116;-84
2023/06/22 07:52:31;;;;;;;15.02;5.65;;;;;;;;;;4977112;28;20038;-84
2023/06/22 07:54:56;;;;;;;15.52;6.03;;;;;;;;;;4978606;28;20033;-84
2023/06/22 07:57:22;;;;;;;18.45;6.03;;;;;;;;;;4984965;28;20038;-84
2023/06/22 07:59:47;;;;;;;16.52;6.38;;;;;;;;;;4987687;28;20038;-85
2023/06/22 08:02:13;;;;;;;19.05;5.75;;;;;;;;;;4991542;28;20117;-84
2023/06/22 08:04:39;;;;;;;22.80;5.88;;;;;;;;;;4995052;28;20439;-85
2023/06/22 08:07:05;;;;;;;20.05;6.03;;;;;;;;;;4993552;28;20030;-84
2023/06/22 08:09:32;;;;;;;20.60;5.63;;;;;;;;;;4994302;28;20407;-85
2023/06/22 08:11:58;;;;;;;14.40;5.80;;;;;;;;;;4995782;28;20085;-86
2023/06/22 08:14:29;;;;;;;14.43;5.72;;;;;;;;;;4994085;28;20038;-84
2023/06/22 08:16:55;;;;;;;19.13;5.95;;;;;;;;;;4993474;28;20041;-86
2023/06/22 08:19:20;;;;;;;17.65;5.47;;;;;;;;;;4986731;28;20026;-88
2023/06/22 08:21:49;;;;;;;17.70;5.70;;;;;;;;;;4979656;28;20053;-85
2023/06/22 08:24:14;;;;;;;16.48;5.55;;;;;;;;;;4980364;28;20062;-87
2023/06/22 08:26:40;;;;;;;17.80;6.03;;;;;;;;;;4986122;28;20496;-85
2023/06/22 08:29:05;;;;;;;15.88;6.00;;;;;;;;;;4986397;28;20034;-86
2023/06/22 08:31:33;;;;;;;14.65;6.03;;;;;;;;;;4989237;28;20136;-87
2023/06/22 08:33:58;;;;;;;18.08;5.28;;;;;;;;;;4993075;28;20205;-86
2023/06/22 08:36:24;;;;;;;20.17;6.03;;;;;;;;;;4994684;28;20129;-86
2023/06/22 08:38:51;;;;;;;19.15;6.15;;;;;;;;;;4994667;28;20029;-87
2023/06/22 08:41:19;;;;;;;13.75;5.15;;;;;;;;;;4994818;28;20109;-87
2023/06/22 08:43:44;;;;;;;17.48;5.63;;;;;;;;;;4993747;28;20117;-87
2023/06/22 08:46:11;;;;;;;15.43;5.60;;;;;;;;;;4994784;28;20081;-87
2023/06/22 08:48:36;;;;;;;20.00;5.97;;;;;;;;;;4994999;28;20658;-87
2023/06/22 08:51:03;;;;;;;16.55;5.70;;;;;;;;;;4996661;28;20068;-87
2023/06/22 08:53:28;;;;;;;16.85;5.50;;;;;;;;;;4995676;28;20038;-87
2023/06/22 08:55:54;;;;;;;18.05;5.38;;;;;;;;;;4995234;28;20037;-88
2023/06/22 08:58:21;;;;;;;25.08;6.05;;;;;;;;;;4995255;28;20049;-87
2023/06/22 09:00:47;;;;;;;23.08;5.85;;;;;;;;;;4995081;28;20035;-88
2023/06/22 09:03:13;;;;;;;16.88;5.68;;;;;;;;;;4993734;28;20057;-87
2023/06/22 09:05:38;;;;;;;16.13;5.78;;;;;;;;;;4995914;28;20034;-87
2023/06/22 09:08:04;;;;;;;21.67;5.93;;;;;;;;;;4995063;28;20093;-88
2023/06/22 09:10:29;;;;;;;14.02;5.82;;;;;;;;;;4982339;28;20081;-88
2023/06/22 09:12:55;;;;;;;17.65;6.57;;;;;;;;;;4984783;28;20113;-88
2023/06/22 09:15:20;;;;;;;17.73;6.13;;;;;;;;;;4988530;28;20636;-87
2023/06/22 09:17:46;;;;;;;21.52;6.53;;;;;;;;;;4997714;28;20038;-87
2023/06/22 09:20:12;;;;;;;18.20;6.10;;;;;;;;;;4998882;28;20137;-87
2023/06/22 09:22:37;;;;;;;19.95;6.32;;;;;;;;;;4999181;28;20522;-85
2023/06/22 09:25:05;;;;;;;16.85;6.30;;;;;;;;;;4988603;28;20018;-86
2023/06/22 09:27:30;;;;;;;21.27;6.57;;;;;;;;;;4985812;28;20038;-87
2023/06/22 09:29:58;;;;;;;21.45;6.45;;;;;;;;;;4986681;28;20046;-89
2023/06/22 09:32:24;;;;;;;16.20;6.50;;;;;;;;;;4989480;28;20039;-87
2023/06/22 09:34:50;;;;;;;17.70;6.63;;;;;;;;;;4990970;28;20507;-87
2023/06/22 09:37:15;;;;;;;19.70;6.40;;;;;;;;;;4995747;28;20062;-88
2023/06/22 09:39:41;;;;;;;21.65;6.70;;;;;;;;;;4997423;28;20026;-87
2023/06/22 09:42:06;;;;;;;25.60;6.60;;;;;;;;;;4999162;28;20034;-87
2023/06/22 09:44:32;;;;;;;14.75;5.80;;;;;;;;;;5000127;28;20034;-87
2023/06/22 09:46:57;;;;;;;19.25;6.72;;;;;;;;;;5000137;28;20046;-88
2023/06/22 09:49:23;;;;;;;18.63;5.82;;;;;;;;;;4997409;28;20034;-85
2023/06/22 09:51:49;;;;;;;17.80;6.53;;;;;;;;;;4995153;28;20418;-87
2023/06/22 09:54:15;;;;;;;16.48;6.30;;;;;;;;;;4996696;28;20041;-87
2023/06/22 09:56:40;;;;;;;21.35;6.20;;;;;;;;;;4994821;28;20034;-87
2023/06/22 09:59:06;;;;;;;19.13;6.05;;;;;;;;;;4982511;28;20559;-85
2023/06/22 10:01:31;;;;;;;18.08;6.40;;;;;;;;;;4981448;28;20061;-86
2023/06/22 10:03:57;;;;;;;21.95;6.60;;;;;;;;;;4988296;28;20084;-86
2023/06/22 10:06:24;;;;;;;17.95;6.70;;;;;;;;;;4996441;28;20504;-86
2023/06/22 10:08:51;;;;;;;19.73;6.50;;;;;;;;;;4994692;28;20042;-87
2023/06/22 10:11:16;;;;;;;22.27;6.80;;;;;;;;;;4996872;28;20407;-88
2023/06/22 10:13:42;;;;;;;20.13;6.10;;;;;;;;;;4994191;28;20046;-87
2023/06/22 10:16:08;;;;;;;17.60;6.22;;;;;;;;;;4978029;28;20070;-85
2023/06/22 10:18:33;;;;;;;19.08;6.40;;;;;;;;;;4981245;28;20038;-85
2023/06/22 10:20:59;;;;;;;20.25;6.97;;;;;;;;;;4984773;28;20039;-85
2023/06/22 10:23:25;;;;;;;14.50;6.10;;;;;;;;;;4988594;28;20042;-86
2023/06/22 10:25:50;;;;;;;19.63;6.63;;;;;;;;;;5005392;28;20034;-86
2023/06/22 10:28:16;;;;;;;17.00;6.50;;;;;;;;;;5000813;28;20042;-87
2023/06/22 10:30:42;;;;;;;17.42;6.85;;;;;;;;;;4993253;28;20039;-87
2023/06/22 10:33:11;;;;;;;17.67;6.90;;;;;;;;;;4981193;28;20055;-87
2023/06/22 10:35:37;;;;;;;19.77;7.13;;;;;;;;;;4983643;28;20031;-87
2023/06/22 10:38:03;;;;;;;17.63;6.82;;;;;;;;;;4987142;28;20030;-87
2023/06/22 10:40:29;;;;;;;17.50;6.90;;;;;;;;;;4988847;28;20038;-87
2023/06/22 10:42:55;;;;;;;21.20;6.60;;;;;;;;;;4991938;28;20038;-87
2023/06/22 10:45:20;;;;;;;21.77;6.75;;;;;;;;;;4995008;28;20102;-88
2023/06/22 10:47:46;;;;;;;15.77;6.35;;;;;;;;;;4997827;28;20038;-87
2023/06/22 10:50:12;;;;;;;21.67;7.13;;;;;;;;;;4996698;28;20041;-86
2023/06/22 10:52:37;;;;;;;19.15;6.32;;;;;;;;;;4995054;28;20045;-87
2023/06/22 10:55:03;;;;;;;16.98;6.20;;;;;;;;;;5005647;28;20034;-86
2023/06/22 10:57:29;;;;;;;23.75;6.18;;;;;;;;;;5002295;28;20042;-86
2023/06/22 10:59:54;;;;;;;21.60;6.20;;;;;;;;;;4996331;28;20038;-86
2023/06/22 11:02:20;;;;;;;19.92;6.38;;;;;;;;;;4994856;28;20057;-87
2023/06/22 11:04:47;;;;;;;15.85;6.10;;;;;;;;;;4983151;28;20054;-87
2023/06/22 11:07:13;;;;;;;18.27;6.10;;;;;;;;;;4980673;28;20396;-87
2023/06/22 11:09:39;;;;;;;21.55;6.25;;;;;;;;;;4967718;28;20038;-87
2023/06/22 11:12:06;;;;;;;21.30;6.40;;;;;;;;;;4990612;28;20030;-87
2023/06/22 11:14:33;;;;;;;22.27;6.65;;;;;;;;;;4993954;28;20387;-87
2023/06/22 11:16:59;;;;;;;21.88;6.40;;;;;;;;;;5005269;28;20038;-87
2023/06/22 11:19:24;;;;;;;20.20;6.32;;;;;;;;;;4997018;28;20054;-87
2023/06/22 11:21:50;;;;;;;18.02;5.95;;;;;;;;;;5007618;28;20088;-86
2023/06/22 11:24:16;;;;;;;18.33;5.97;;;;;;;;;;4996298;28;20046;-86
2023/06/22 11:26:41;;;;;;;23.65;6.35;;;;;;;;;;4995054;28;20038;-86
2023/06/22 11:29:07;;;;;;;22.45;6.53;;;;;;;;;;4996008;28;20046;-86
2023/06/22 11:31:34;;;;;;;24.08;7.65;;;;;;;;;;4998032;28;20042;-86
2023/06/22 11:34:00;;;;;;;18.23;6.55;;;;;;;;;;4989374;28;20404;-86
2023/06/22 11:36:26;;;;;;;21.30;6.50;;;;;;;;;;4978854;28;20515;-86
2023/06/22 11:38:51;;;;;;;20.55;6.78;;;;;;;;;;4995716;28;20046;-86
2023/06/22 11:41:16;;;;;;;21.88;6.70;;;;;;;;;;4997179;28;20044;-86
2023/06/22 11:43:42;;;;;;;19.52;6.65;;;;;;;;;;4995960;28;20034;-86
2023/06/22 11:46:07;;;;;;;18.50;5.95;;;;;;;;;;4996673;28;20422;-86
2023/06/22 11:48:33;;;;;;;21.50;6.60;;;;;;;;;;4996229;28;20038;-87
2023/06/22 11:50:58;;;;;;;21.13;6.43;;;;;;;;;;4983284;28;20034;-85
2023/06/22 11:53:26;;;;;;;22.52;5.80;;;;;;;;;;4980759;28;20035;-86
2023/06/22 11:55:53;;;;;;;26.00;6.70;;;;;;;;;;4983201;28;20034;-86
2023/06/22 11:58:19;;;;;;;23.17;6.60;;;;;;;;;;4994561;28;20038;-87
2023/06/22 12:00:45;;;;;;;20.25;5.85;;;;;;;;;;4995502;28;20034;-88
2023/06/22 12:03:11;;;;;;;21.05;6.40;;;;;;;;;;4999168;28;20046;-86
2023/06/22 12:05:36;;;;;;;17.45;6.38;;;;;;;;;;4998551;28;20042;-87
2023/06/22 12:08:02;;;;;;;16.13;6.13;;;;;;;;;;4981958;28;20022;-88
2023/06/22 12:10:30;;;;;;;23.55;6.80;;;;;;;;;;4983913;28;20045;-87
2023/06/22 12:12:57;;;;;;;25.75;6.60;;;;;;;;;;4996201;28;20558;-87
2023/06/22 12:15:23;;;;;;;17.38;6.28;;;;;;;;;;4994679;28;20064;-88
2023/06/22 12:17:49;;;;;;;14.98;5.82;;;;;;;;;;4994725;28;20503;-85
2023/06/22 12:20:14;;;;;;;20.08;6.40;;;;;;;;;;4994194;28;20046;-89
2023/06/22 12:22:40;;;;;;;19.60;6.45;;;;;;;;;;4994465;28;20048;-88
2023/06/22 12:25:07;;;;;;;21.35;6.50;;;;;;;;;;4991982;28;20035;-82
2023/06/22 12:27:33;;;;;;;22.90;6.07;;;;;;;;;;4994099;28;20030;-83
2023/06/22 12:29:58;;;;;;;16.98;5.88;;;;;;;;;;4993908;28;20034;-83
2023/06/22 12:32:25;;;;;;;17.95;6.32;;;;;;;;;;4994926;28;20655;-85
2023/06/22 12:34:51;;;;;;;22.65;6.20;;;;;;;;;;4994822;28;20133;-85
2023/06/22 12:37:16;;;;;;;26.10;6.78;;;;;;;;;;4991832;28;20066;-86
2023/06/22 12:39:42;;;;;;;25.83;6.53;;;;;;;;;;4995059;28;20048;-85
2023/06/22 12:42:08;;;;;;;21.75;6.20;;;;;;;;;;4996753;28;20041;-85
2023/06/22 12:44:40;;;;;;;17.35;5.72;;;;;;;;;;4990897;28;20053;-84
2023/06/22 12:47:06;;;;;;;20.67;5.90;;;;;;;;;;4992702;28;20049;-87
2023/06/22 12:49:32;;;;;;;25.02;6.13;;;;;;;;;;4993142;28;20035;-86
2023/06/22 12:51:57;;;;;;;23.65;5.85;;;;;;;;;;4993701;28;20033;-84
2023/06/22 12:54:23;;;;;;;20.83;5.95;;;;;;;;;;4992331;28;20045;-85
2023/06/22 12:56:50;;;;;;;19.38;5.90;;;;;;;;;;4993297;28;20033;-83
2023/06/22 12:59:17;;;;;;;17.60;6.20;;;;;;;;;;4993135;28;20026;-85
2023/06/22 13:01:43;;;;;;;21.63;6.18;;;;;;;;;;4987851;28;20531;-82
2023/06/22 13:04:11;;;;;;;24.83;5.72;;;;;;;;;;4976999;28;20043;-83
2023/06/22 13:06:36;;;;;;;22.73;6.70;;;;;;;;;;4993269;28;20038;-85
2023/06/22 13:09:04;;;;;;;21.60;6.15;;;;;;;;;;4992142;28;20041;-85
2023/06/22 13:11:30;;;;;;;23.30;5.50;;;;;;;;;;4992775;28;20034;-86
2023/06/22 13:13:55;;;;;;;21.95;5.65;;;;;;;;;;4991055;28;20045;-84
2023/06/22 13:16:21;;;;;;;20.20;5.72;;;;;;;;;;4975599;28;20038;-86
2023/06/22 13:18:46;;;;;;;17.38;5.35;;;;;;;;;;4994624;28;20039;-84
2023/06/22 13:21:12;;;;;;;19.88;5.35;;;;;;;;;;4982253;28;20046;-85
2023/06/22 13:23:37;;;;;;;21.30;5.80;;;;;;;;;;4993442;28;20042;-85
2023/06/22 13:26:03;;;;;;;18.92;5.68;;;;;;;;;;4993967;28;20125;-86
2023/06/22 13:28:30;;;;;;;16.08;4.85;;;;;;;;;;4993384;28;20663;-86
2023/06/22 13:30:55;;;;;;;20.80;6.50;;;;;;;;;;4992155;28;20427;-84
2023/06/22 13:33:20;;;;;;;20.85;5.93;;;;;;;;;;4991980;28;20741;-85
2023/06/22 13:35:46;;;;;;;19.33;5.90;;;;;;;;;;4993558;28;20039;-85
2023/06/22 13:38:11;;;;;;;24.95;6.20;;;;;;;;;;4993241;28;20034;-88
2023/06/22 13:40:37;;;;;;;26.85;5.30;;;;;;;;;;4993600;28;20126;-87
2023/06/22 13:43:04;;;;;;;22.95;6.10;;;;;;;;;;4992365;28;20053;-87
2023/06/22 13:45:30;;;;;;;24.38;6.18;;;;;;;;;;4996035;28;20122;-87
2023/06/22 13:47:55;;;;;;;19.98;5.68;;;;;;;;;;4994482;28;20508;-88
2023/06/22 13:50:21;;;;;;;16.63;5.53;;;;;;;;;;4994949;28;20480;-87
2023/06/22 13:52:46;;;;;;;18.77;5.80;;;;;;;;;;4998716;28;20030;-87
2023/06/22 13:55:14;;;;;;;20.52;5.93;;;;;;;;;;5001216;28;20464;-86
2023/06/22 13:57:39;;;;;;;21.83;5.93;;;;;;;;;;4998378;28;20034;-87
2023/06/22 14:00:05;;;;;;;20.17;6.00;;;;;;;;;;4996569;28;20104;-87
2023/06/22 14:02:37;;;;;;;19.63;5.90;;;;;;;;;;5000547;28;20038;-89
2023/06/22 14:05:02;;;;;;;23.50;5.93;;;;;;;;;;4999053;28;20053;-88
2023/06/22 14:07:28;;;;;;;14.32;5.57;;;;;;;;;;4997902;28;20030;-88
2023/06/22 14:09:53;;;;;;;16.92;5.80;;;;;;;;;;4999437;28;20503;-87
2023/06/22 14:12:19;;;;;;;23.85;5.93;;;;;;;;;;4990877;28;20043;-88
2023/06/22 14:14:44;;;;;;;19.30;6.22;;;;;;;;;;4985070;28;20041;-87
2023/06/22 14:17:10;;;;;;;21.23;5.60;;;;;;;;;;4995008;28;20038;-87
2023/06/22 14:19:36;;;;;;;23.10;5.43;;;;;;;;;;4996975;28;20042;-87
2023/06/22 14:22:01;;;;;;;23.02;6.03;;;;;;;;;;4996945;28;20040;-88
2023/06/22 14:24:27;;;;;;;20.52;6.10;;;;;;;;;;4993518;28;20554;-87
2023/06/22 14:26:54;;;;;;;20.00;5.95;;;;;;;;;;4979646;28;20424;-86
2023/06/22 14:29:20;;;;;;;22.83;6.25;;;;;;;;;;4989325;28;20099;-87